Time;durP1;ratioP1;P1;durP2;ratioP2;P2;SDS_P1;SDS_P2;PMS_P1;PMS_P2;Temp;Humidity;BMP_temperature;BMP_pressure;BME280_temperature;BME280_humidity;BME280_pressure;Samples;Min_cycle;Max_cycle;Signal;HPM_P1;HPM_P2
2023/05/16 00:00:08;;;;;;;10.10;5.15;;;12.20;99.90;;;;;;4993962;28;20258;-83
2023/05/16 00:02:38;;;;;;;8.18;4.82;;;12.10;99.90;;;;;;5007380;28;20181;-85
2023/05/16 00:05:06;;;;;;;8.57;4.88;;;12.10;99.90;;;;;;5002777;28;20281;-83
2023/05/16 00:07:33;;;;;;;9.13;5.45;;;12.10;99.90;;;;;;4984608;28;20183;-84
2023/05/16 00:09:59;;;;;;;7.05;4.85;;;12.10;99.90;;;;;;4987074;28;20232;-83
2023/05/16 00:15:47;;;;;;;8.80;5.68;;;12.00;99.90;;;;;;4996333;28;20735;-85
2023/05/16 00:18:15;;;;;;;13.63;5.13;;;12.00;99.90;;;;;;4979064;28;20212;-85
2023/05/16 00:20:41;;;;;;;8.35;4.90;;;12.00;99.90;;;;;;4963833;28;20178;-85
2023/05/16 00:23:06;;;;;;;11.43;4.75;;;11.90;99.90;;;;;;4979046;28;20519;-85
2023/05/16 00:25:32;;;;;;;8.90;5.85;;;11.90;99.90;;;;;;4995068;28;20221;-85
2023/05/16 00:27:58;;;;;;;10.52;5.03;;;11.90;99.90;;;;;;4995725;28;20178;-85
2023/05/16 00:30:23;;;;;;;10.80;5.65;;;11.80;99.90;;;;;;4962473;28;20182;-85
2023/05/16 00:32:49;;;;;;;8.82;5.88;;;11.80;99.90;;;;;;4979012;28;20181;-84
2023/05/16 00:35:14;;;;;;;11.32;5.68;;;11.80;99.90;;;;;;4978707;28;20606;-85
2023/05/16 00:37:40;;;;;;;11.13;5.63;;;11.80;99.90;;;;;;4978075;28;20189;-85
2023/05/16 00:40:06;;;;;;;11.43;6.80;;;11.70;99.90;;;;;;4995879;28;20182;-85
2023/05/16 00:42:32;;;;;;;9.65;5.97;;;11.70;99.90;;;;;;5006235;28;20233;-85
2023/05/16 00:44:58;;;;;;;9.18;5.18;;;11.70;99.90;;;;;;5030340;28;20697;-85
2023/05/16 00:47:24;;;;;;;10.88;6.47;;;11.70;99.90;;;;;;5015203;28;20189;-84
2023/05/16 00:49:50;;;;;;;7.78;4.55;;;11.60;99.90;;;;;;5013771;28;20598;-84
2023/05/16 00:52:15;;;;;;;10.07;5.45;;;11.60;99.90;;;;;;5030347;28;20692;-84
2023/05/16 00:54:41;;;;;;;9.13;5.43;;;11.50;99.90;;;;;;5015179;28;20239;-85
2023/05/16 00:57:07;;;;;;;9.75;6.10;;;11.50;99.90;;;;;;5013451;28;20709;-85
2023/05/16 00:59:33;;;;;;;8.48;5.03;;;11.50;99.90;;;;;;5013957;28;20185;-85
2023/05/16 01:01:59;;;;;;;8.13;5.47;;;11.50;99.90;;;;;;5014486;28;20272;-85
2023/05/16 01:04:25;;;;;;;10.82;6.43;;;11.40;99.90;;;;;;5014882;28;20649;-85
2023/05/16 01:06:51;;;;;;;7.55;4.85;;;11.40;99.90;;;;;;5014601;28;20204;-85
2023/05/16 01:09:18;;;;;;;12.63;5.60;;;11.40;99.90;;;;;;4981242;28;20204;-85
2023/05/16 01:11:59;;;;;;;9.38;5.78;;;11.30;99.90;;;;;;4997013;28;20176;-85
2023/05/16 01:14:43;;;;;;;8.40;5.00;;;11.30;99.90;;;;;;5013886;28;20173;-85
2023/05/16 01:17:12;;;;;;;9.15;5.28;;;11.30;99.90;;;;;;5014678;28;20188;-85
2023/05/16 01:20:26;;;;;;;9.15;5.75;;;11.30;99.90;;;;;;5013336;28;20177;-85
2023/05/16 01:23:03;;;;;;;12.25;5.88;;;11.20;99.90;;;;;;5029878;28;20639;-85
2023/05/16 01:25:44;;;;;;;12.65;5.93;;;11.20;99.90;;;;;;5014424;28;20189;-86
2023/05/16 01:28:12;;;;;;;11.98;6.70;;;11.20;99.90;;;;;;5012995;28;20596;-86
2023/05/16 01:30:43;;;;;;;10.30;5.93;;;11.20;99.90;;;;;;5029716;28;20231;-86
2023/05/16 01:33:09;;;;;;;12.35;6.55;;;11.20;99.90;;;;;;5013907;28;20583;-85
2023/05/16 01:35:58;;;;;;;9.73;5.85;;;11.20;99.90;;;;;;4980749;28;20276;-85
2023/05/16 01:38:37;;;;;;;13.00;6.03;;;11.20;99.90;;;;;;5000286;28;20248;-84
2023/05/16 01:41:22;;;;;;;11.25;5.50;;;11.10;99.90;;;;;;5012756;28;20235;-85
2023/05/16 01:43:52;;;;;;;13.48;6.25;;;11.10;99.90;;;;;;5013320;28;20177;-85
2023/05/16 01:46:25;;;;;;;10.45;5.53;;;11.10;99.90;;;;;;5014159;28;20198;-85
2023/05/16 01:49:16;;;;;;;10.68;6.78;;;11.00;99.90;;;;;;5029031;28;20231;-85
2023/05/16 01:51:48;;;;;;;12.32;6.63;;;11.00;99.90;;;;;;5015413;28;20189;-85
2023/05/16 01:54:17;;;;;;;11.05;6.50;;;10.90;99.90;;;;;;5037098;28;20196;-84
2023/05/16 01:56:50;;;;;;;9.27;5.82;;;10.90;99.90;;;;;;5037726;28;20224;-84
2023/05/16 01:59:18;;;;;;;12.27;5.53;;;10.90;99.90;;;;;;5026130;28;20607;-84
2023/05/16 02:01:43;;;;;;;10.98;6.20;;;10.90;99.90;;;;;;5013317;28;20173;-85
2023/05/16 02:04:09;;;;;;;10.52;6.28;;;10.80;99.90;;;;;;5011731;28;20196;-84
2023/05/16 02:06:35;;;;;;;9.50;5.82;;;10.80;99.90;;;;;;5013361;28;20201;-84
2023/05/16 02:09:01;;;;;;;8.38;5.28;;;;;;;;;;4995933;28;20189;-85
2023/05/16 02:11:26;;;;;;;12.38;6.30;;;10.80;99.90;;;;;;5012712;28;20272;-84
2023/05/16 02:13:52;;;;;;;8.57;5.38;;;10.80;99.90;;;;;;5011767;28;20256;-85
2023/05/16 02:16:17;;;;;;;9.57;4.75;;;10.70;99.90;;;;;;4995666;28;20646;-85
2023/05/16 02:18:44;;;;;;;9.55;5.45;;;10.70;99.90;;;;;;4995774;28;20181;-85
2023/05/16 02:21:10;;;;;;;8.20;5.03;;;10.70;99.90;;;;;;5011657;28;20217;-85
2023/05/16 02:23:35;;;;;;;9.25;5.53;;;10.70;99.90;;;;;;5013099;28;20219;-85
2023/05/16 02:26:01;;;;;;;8.60;5.03;;;10.60;99.90;;;;;;5031562;28;20255;-85
2023/05/16 02:28:27;;;;;;;8.48;4.85;;;10.60;99.90;;;;;;5015367;28;20177;-85
2023/05/16 02:30:57;;;;;;;7.85;5.13;;;10.60;99.90;;;;;;5016856;28;20658;-85
2023/05/16 02:33:23;;;;;;;8.13;5.18;;;10.60;99.90;;;;;;5016580;28;20161;-85
2023/05/16 02:35:49;;;;;;;9.18;5.57;;;10.60;99.90;;;;;;5015221;28;20193;-85
2023/05/16 02:38:16;;;;;;;8.88;5.47;;;10.60;99.90;;;;;;5031385;28;20169;-84
2023/05/16 02:40:42;;;;;;;11.13;5.75;;;10.50;99.90;;;;;;5016488;28;20184;-85
2023/05/16 02:43:07;;;;;;;10.57;5.22;;;10.50;99.90;;;;;;4977810;28;1098264;-85
2023/05/16 02:45:33;;;;;;;9.85;5.95;;;10.50;99.90;;;;;;5016432;28;20209;-85
2023/05/16 02:47:59;;;;;;;10.10;6.47;;;10.50;99.90;;;;;;5000329;28;20195;-86
2023/05/16 02:50:24;;;;;;;11.02;6.43;;;10.50;99.90;;;;;;5016957;28;20182;-85
2023/05/16 02:52:51;;;;;;;8.93;5.13;;;10.50;99.90;;;;;;5016497;28;20223;-86
2023/05/16 02:55:16;;;;;;;10.20;5.78;;;10.50;99.90;;;;;;5016431;28;20182;-85
2023/05/16 02:57:42;;;;;;;8.02;5.68;;;10.50;99.90;;;;;;5017654;28;20228;-84
2023/05/16 03:00:10;;;;;;;11.35;5.57;;;10.50;99.90;;;;;;4983597;28;20181;-85
2023/05/16 03:02:36;;;;;;;10.77;6.00;;;10.50;99.90;;;;;;5016454;28;20181;-85
2023/05/16 03:05:01;;;;;;;7.93;5.53;;;10.50;99.90;;;;;;5016258;28;20227;-84
2023/05/16 03:07:27;;;;;;;12.60;6.32;;;10.50;99.90;;;;;;5015819;28;20225;-85
2023/05/16 03:09:53;;;;;;;10.88;5.72;;;10.50;99.90;;;;;;5032786;28;20185;-85
2023/05/16 03:12:18;;;;;;;9.10;6.28;;;10.50;99.90;;;;;;5016979;28;20255;-86
2023/05/16 03:14:44;;;;;;;8.30;5.40;;;10.50;99.90;;;;;;5015963;28;20669;-85
2023/05/16 03:17:09;;;;;;;10.05;6.65;;;10.40;99.90;;;;;;5017337;28;20257;-85
2023/05/16 03:19:35;;;;;;;9.93;6.03;;;10.40;99.90;;;;;;5015620;28;20181;-85
2023/05/16 03:22:01;;;;;;;10.32;6.25;;;10.40;99.90;;;;;;5017429;28;20179;-85
2023/05/16 03:24:27;;;;;;;19.58;11.38;;;10.40;99.90;;;;;;5015602;28;20630;-85
2023/05/16 03:26:52;;;;;;;12.57;7.00;;;10.40;99.90;;;;;;5016527;28;20656;-85
2023/05/16 03:29:18;;;;;;;9.38;5.63;;;10.40;99.90;;;;;;5016875;28;20177;-84
2023/05/16 03:31:43;;;;;;;12.35;6.50;;;10.40;99.90;;;;;;4999454;28;20185;-86
2023/05/16 03:34:09;;;;;;;10.45;5.38;;;10.50;99.90;;;;;;4998671;28;20268;-85
2023/05/16 03:36:35;;;;;;;11.40;6.72;;;10.50;99.90;;;;;;5015606;28;20228;-85
2023/05/16 03:39:02;;;;;;;12.18;6.63;;;10.50;99.90;;;;;;5016976;28;20181;-85
2023/05/16 03:41:28;;;;;;;9.55;5.90;;;10.50;99.90;;;;;;5016378;28;20243;-85
2023/05/16 03:43:53;;;;;;;10.10;5.47;;;10.60;99.90;;;;;;5016496;28;20173;-85
2023/05/16 03:46:19;;;;;;;11.63;6.35;;;10.60;99.90;;;;;;5016520;28;20804;-85
2023/05/16 03:48:45;;;;;;;9.15;5.65;;;10.70;99.90;;;;;;5016586;28;20187;-85
2023/05/16 03:51:10;;;;;;;11.35;6.30;;;10.80;99.90;;;;;;5016448;28;20275;-85
2023/05/16 03:53:36;;;;;;;15.68;6.38;;;10.80;99.90;;;;;;5015933;28;20556;-86
2023/05/16 03:56:02;;;;;;;11.20;6.45;;;10.80;99.90;;;;;;5017428;28;20185;-86
2023/05/16 03:58:28;;;;;;;10.68;6.07;;;10.80;99.90;;;;;;5029827;28;20182;-86
2023/05/16 04:00:54;;;;;;;8.88;6.20;;;10.90;99.90;;;;;;5035038;28;20193;-85
2023/05/16 04:03:26;;;;;;;14.48;6.57;;;11.00;99.90;;;;;;5022517;28;20192;-85
2023/05/16 04:05:55;;;;;;;11.18;6.40;;;11.00;99.90;;;;;;5009433;28;20225;-85
2023/05/16 04:08:21;;;;;;;11.73;5.63;;;11.10;99.90;;;;;;5024537;28;20229;-84
2023/05/16 04:10:46;;;;;;;10.57;6.30;;;11.10;99.90;;;;;;5023583;28;20248;-85
2023/05/16 04:13:12;;;;;;;11.25;6.22;;;11.10;99.90;;;;;;5021982;28;20273;-85
2023/05/16 04:15:38;;;;;;;9.55;5.93;;;11.20;99.90;;;;;;5010302;28;20198;-85
2023/05/16 04:18:04;;;;;;;9.15;6.22;;;11.30;99.90;;;;;;5001610;28;20742;-85
2023/05/16 04:20:30;;;;;;;9.88;6.30;;;11.40;99.90;;;;;;5003219;28;20182;-85
2023/05/16 04:22:55;;;;;;;16.58;7.30;;;11.40;99.90;;;;;;5008021;28;20190;-86
2023/05/16 04:25:21;;;;;;;9.85;5.57;;;11.40;99.90;;;;;;5009416;28;20265;-85
2023/05/16 04:27:47;;;;;;;10.45;5.82;;;11.50;99.90;;;;;;5008450;28;20182;-85
2023/05/16 04:30:13;;;;;;;13.25;6.35;;;11.50;99.90;;;;;;5010081;28;20189;-85
2023/05/16 04:32:39;;;;;;;12.32;6.97;;;11.50;99.90;;;;;;5001725;28;20171;-85
2023/05/16 04:35:07;;;;;;;11.60;6.35;;;11.60;99.90;;;;;;5016310;28;20186;-86
2023/05/16 04:37:34;;;;;;;10.90;6.28;;;11.70;99.90;;;;;;4999749;28;20212;-86
2023/05/16 04:40:00;;;;;;;9.25;5.82;;;11.70;99.90;;;;;;4993619;28;20209;-85
2023/05/16 04:42:26;;;;;;;12.70;7.10;;;11.80;99.90;;;;;;5007030;28;20237;-85
2023/05/16 04:44:52;;;;;;;10.85;6.15;;;11.80;99.90;;;;;;5011845;28;20241;-85
2023/05/16 04:47:17;;;;;;;11.93;5.88;;;11.90;99.90;;;;;;5011424;28;20196;-85
2023/05/16 04:49:43;;;;;;;16.00;6.95;;;12.00;99.90;;;;;;5015256;28;20193;-86
2023/05/16 04:52:10;;;;;;;12.48;7.03;;;12.10;99.90;;;;;;5018426;28;20178;-87
2023/05/16 04:54:37;;;;;;;12.32;6.90;;;12.20;99.90;;;;;;5005458;28;20257;-85
2023/05/16 04:57:03;;;;;;;10.80;7.05;;;12.20;99.90;;;;;;5026611;28;20200;-85
2023/05/16 04:59:29;;;;;;;9.48;6.95;;;12.20;99.90;;;;;;5015208;28;20194;-85
2023/05/16 05:01:55;;;;;;;9.85;5.60;;;12.20;99.90;;;;;;5029567;28;20205;-83
2023/05/16 05:04:21;;;;;;;12.00;6.57;;;12.30;99.90;;;;;;5003343;28;20213;-83
2023/05/16 05:06:48;;;;;;;8.80;5.75;;;12.30;99.90;;;;;;5024276;28;20540;-83
2023/05/16 05:09:13;;;;;;;8.18;5.63;;;12.40;99.90;;;;;;5026972;28;20211;-84
2023/05/16 05:11:39;;;;;;;9.65;5.55;;;12.40;99.90;;;;;;5004213;28;20165;-84
2023/05/16 05:14:05;;;;;;;10.20;6.00;;;12.50;99.90;;;;;;5000574;28;20601;-85
2023/05/16 05:16:31;;;;;;;12.02;5.97;;;12.60;99.90;;;;;;4992407;28;20174;-84
2023/05/16 05:18:57;;;;;;;8.63;5.57;;;12.80;99.90;;;;;;4995517;28;20676;-83
2023/05/16 05:21:24;;;;;;;8.77;5.40;;;12.80;99.90;;;;;;5000344;28;20216;-82
2023/05/16 05:23:50;;;;;;;9.40;5.82;;;12.90;99.90;;;;;;5018555;28;20193;-82
2023/05/16 05:26:16;;;;;;;10.20;6.30;;;13.00;99.90;;;;;;5014712;28;20201;-82
2023/05/16 05:28:42;;;;;;;7.93;5.43;;;13.10;99.90;;;;;;5014196;28;20551;-83
2023/05/16 05:31:08;;;;;;;9.18;5.45;;;13.10;99.90;;;;;;5002323;28;20182;-85
2023/05/16 05:33:33;;;;;;;8.45;5.30;;;13.20;99.90;;;;;;5018305;28;20180;-84
2023/05/16 05:35:59;;;;;;;6.80;4.63;;;13.30;99.90;;;;;;5011742;28;20651;-84
2023/05/16 05:38:25;;;;;;;8.52;5.28;;;;;;;;;;5000386;28;20197;-84
2023/05/16 05:40:51;;;;;;;11.00;5.55;;;13.50;99.90;;;;;;4977058;28;20206;-84
2023/05/16 05:43:17;;;;;;;8.60;4.90;;;13.50;99.90;;;;;;4992659;28;20205;-84
2023/05/16 05:45:43;;;;;;;6.10;4.47;;;13.50;99.90;;;;;;4992051;28;20213;-84
2023/05/16 05:48:09;;;;;;;9.57;5.60;;;13.60;99.90;;;;;;4993335;28;20213;-83
2023/05/16 05:50:36;;;;;;;6.07;4.13;;;13.70;99.90;;;;;;4990889;28;20733;-85
2023/05/16 05:53:02;;;;;;;8.75;4.30;;;13.70;99.90;;;;;;4994964;28;20185;-85
2023/05/16 05:55:28;;;;;;;8.70;5.00;;;;;;;;;;5005233;28;20208;-84
2023/05/16 05:57:54;;;;;;;9.23;5.38;;;13.90;99.90;;;;;;5008713;28;20205;-84
2023/05/16 06:00:21;;;;;;;5.45;4.30;;;14.00;99.90;;;;;;4999567;28;20193;-84
2023/05/16 06:02:47;;;;;;;12.63;4.38;;;14.00;99.90;;;;;;4993961;28;20188;-85
2023/05/16 06:05:13;;;;;;;5.18;3.97;;;14.10;99.90;;;;;;4994572;28;20210;-83
2023/05/16 06:07:38;;;;;;;6.65;4.22;;;14.20;99.90;;;;;;4995338;28;20252;-84
2023/05/16 06:10:05;;;;;;;5.18;3.95;;;14.40;99.90;;;;;;5018880;28;20533;-82
2023/05/16 06:12:30;;;;;;;8.35;3.67;;;14.50;99.90;;;;;;4998490;28;20308;-84
2023/05/16 06:14:56;;;;;;;5.97;3.80;;;14.50;99.90;;;;;;5007084;28;20731;-84
2023/05/16 06:17:22;;;;;;;8.10;4.72;;;14.50;99.90;;;;;;4974315;28;20248;-84
2023/05/16 06:19:47;;;;;;;8.30;4.43;;;14.80;99.90;;;;;;4992446;28;20217;-82
2023/05/16 06:22:13;;;;;;;4.07;3.53;;;14.70;99.90;;;;;;4991622;28;20674;-82
2023/05/16 06:24:39;;;;;;;7.90;3.88;;;14.70;99.90;;;;;;5000233;28;20722;-83
2023/05/16 06:27:06;;;;;;;6.00;3.78;;;14.70;99.90;;;;;;4991861;28;20590;-83
2023/05/16 06:29:33;;;;;;;5.72;3.83;;;14.70;99.90;;;;;;4994572;28;20182;-83
2023/05/16 06:31:58;;;;;;;10.40;3.63;;;14.60;99.90;;;;;;4993815;28;20284;-83
2023/05/16 06:34:27;;;;;;;5.10;3.15;;;14.80;99.90;;;;;;4982797;28;20265;-83
2023/05/16 06:36:55;;;;;;;4.63;3.15;;;15.00;99.90;;;;;;4999058;28;20221;-82
2023/05/16 06:39:21;;;;;;;7.47;3.33;;;15.20;99.90;;;;;;4989208;28;20261;-83
2023/05/16 06:41:47;;;;;;;3.95;3.03;;;;;;;;;;5008938;28;20590;-85
2023/05/16 06:44:13;;;;;;;4.93;3.35;;;15.50;99.90;;;;;;4994775;28;20650;-85
2023/05/16 06:46:39;;;;;;;4.28;3.45;;;15.60;99.90;;;;;;4992163;28;20337;-82
2023/05/16 06:49:06;;;;;;;4.30;3.20;;;15.60;99.90;;;;;;4992798;28;20216;-83
2023/05/16 06:51:31;;;;;;;5.07;3.67;;;15.60;99.90;;;;;;4991730;28;20254;-83
2023/05/16 06:53:57;;;;;;;4.40;2.85;;;15.60;99.90;;;;;;4990971;28;20673;-82
2023/05/16 06:56:23;;;;;;;6.25;3.15;;;15.60;99.90;;;;;;4993504;28;20559;-83
2023/05/16 06:58:49;;;;;;;5.40;3.38;;;15.80;99.90;;;;;;4999937;28;20959;-81
2023/05/16 07:01:15;;;;;;;6.10;3.28;;;15.80;99.90;;;;;;4990501;28;20190;-84
2023/05/16 07:03:41;;;;;;;4.60;3.15;;;15.80;99.90;;;;;;5002522;28;20190;-83
2023/05/16 07:06:07;;;;;;;4.93;3.10;;;15.70;99.90;;;;;;4992145;28;20210;-83
2023/05/16 07:08:34;;;;;;;7.45;3.22;;;15.80;99.90;;;;;;4990585;28;20190;-83
2023/05/16 07:11:00;;;;;;;4.72;3.08;;;15.90;99.90;;;;;;5010388;28;20193;-83
2023/05/16 07:13:26;;;;;;;4.90;3.13;;;16.00;99.90;;;;;;5010007;28;20248;-82
2023/05/16 07:15:52;;;;;;;6.63;2.92;;;15.90;99.90;;;;;;4990735;28;20198;-83
2023/05/16 07:18:17;;;;;;;4.20;2.95;;;16.10;99.90;;;;;;4993027;28;20581;-83
2023/05/16 07:20:43;;;;;;;3.75;2.58;;;16.10;99.90;;;;;;4996914;28;20292;-83
2023/05/16 07:23:09;;;;;;;3.90;2.83;;;16.20;99.90;;;;;;4982662;28;20185;-84
2023/05/16 07:25:35;;;;;;;2.83;2.53;;;16.30;99.90;;;;;;5010389;28;20209;-84
2023/05/16 07:28:01;;;;;;;4.05;3.25;;;16.30;99.90;;;;;;4978103;28;20982;-83
2023/05/16 07:30:27;;;;;;;5.28;3.20;;;16.30;99.90;;;;;;4993703;28;20198;-84
2023/05/16 07:32:53;;;;;;;4.40;3.08;;;16.30;99.90;;;;;;4995973;28;20197;-84
2023/05/16 07:35:18;;;;;;;4.28;3.00;;;16.20;99.90;;;;;;4994968;28;20216;-83
2023/05/16 07:37:44;;;;;;;3.33;3.03;;;16.30;99.90;;;;;;4997002;28;20220;-83
2023/05/16 07:40:10;;;;;;;5.10;2.88;;;16.40;99.90;;;;;;5012031;28;20220;-84
2023/05/16 07:42:36;;;;;;;5.25;4.00;;;16.40;99.90;;;;;;4996702;28;20261;-85
2023/05/16 07:45:03;;;;;;;4.10;3.00;;;16.40;99.90;;;;;;5011922;28;20237;-83
2023/05/16 07:47:28;;;;;;;7.22;2.85;;;16.40;99.90;;;;;;4995618;28;20178;-83
2023/05/16 07:49:54;;;;;;;3.92;2.70;;;16.40;99.90;;;;;;4995309;28;20561;-83
2023/05/16 07:52:20;;;;;;;3.85;2.85;;;16.50;99.90;;;;;;4995315;28;20185;-84
2023/05/16 07:54:46;;;;;;;4.28;3.08;;;16.60;99.90;;;;;;4995191;28;20201;-86
2023/05/16 07:57:16;;;;;;;3.15;2.58;;;16.80;99.90;;;;;;4996675;28;20182;-84
2023/05/16 07:59:42;;;;;;;3.72;2.67;;;16.90;99.90;;;;;;4994998;28;20178;-84
2023/05/16 08:02:09;;;;;;;2.58;2.38;;;17.10;99.90;;;;;;5011193;28;20651;-84
2023/05/16 08:04:35;;;;;;;3.67;2.92;;;17.00;99.90;;;;;;4995179;28;20187;-84
2023/05/16 08:07:01;;;;;;;4.40;2.53;;;16.80;99.90;;;;;;4996080;28;20192;-85
2023/05/16 08:09:26;;;;;;;2.67;2.47;;;16.80;99.90;;;;;;5011888;28;20180;-85
2023/05/16 08:11:52;;;;;;;2.80;2.60;;;17.00;99.90;;;;;;4995787;28;20269;-83
2023/05/16 08:14:20;;;;;;;4.43;2.90;;;17.20;99.90;;;;;;4995065;28;20182;-83
2023/05/16 08:16:45;;;;;;;3.33;2.42;;;17.40;99.90;;;;;;4995520;28;20185;-83
2023/05/16 08:19:11;;;;;;;5.15;3.05;;;17.40;99.90;;;;;;4994383;28;20561;-83
2023/05/16 08:21:37;;;;;;;5.30;2.80;;;17.40;99.90;;;;;;4993737;28;20214;-83
2023/05/16 08:24:04;;;;;;;4.90;2.97;;;17.30;99.90;;;;;;4994409;28;20695;-83
2023/05/16 08:26:30;;;;;;;4.68;2.20;;;17.30;99.90;;;;;;5010598;28;20232;-83
2023/05/16 08:28:56;;;;;;;6.07;3.35;;;17.30;99.90;;;;;;4978178;28;20211;-84
2023/05/16 08:31:21;;;;;;;3.40;2.45;;;17.50;99.90;;;;;;4994384;28;20256;-83
2023/05/16 08:33:47;;;;;;;2.55;2.10;;;17.50;99.90;;;;;;4994600;28;20182;-83
2023/05/16 08:36:14;;;;;;;3.92;2.78;;;17.60;99.90;;;;;;4994117;28;20186;-83
2023/05/16 08:38:40;;;;;;;3.33;2.45;;;17.60;99.90;;;;;;4994448;28;20193;-84
2023/05/16 08:41:06;;;;;;;7.35;2.40;;;17.50;99.90;;;;;;4993996;28;20178;-84
2023/05/16 08:43:34;;;;;;;3.25;2.58;;;17.50;99.90;;;;;;4995515;28;20166;-83
2023/05/16 08:46:00;;;;;;;2.95;2.42;;;17.60;99.90;;;;;;4994910;28;20218;-84
2023/05/16 08:48:27;;;;;;;3.15;2.45;;;17.60;99.90;;;;;;4995503;28;20182;-83
2023/05/16 08:50:53;;;;;;;6.18;2.80;;;17.70;99.90;;;;;;4994111;28;20193;-83
2023/05/16 08:53:25;;;;;;;4.13;2.70;;;17.80;99.90;;;;;;4994668;28;20174;-83
2023/05/16 08:55:52;;;;;;;2.90;2.55;;;17.80;99.90;;;;;;4995082;28;20201;-83
2023/05/16 08:58:19;;;;;;;3.85;2.33;;;17.70;99.90;;;;;;4997222;28;20184;-83
2023/05/16 09:00:45;;;;;;;3.08;2.50;;;17.80;99.90;;;;;;4993768;28;20180;-83
2023/05/16 09:03:11;;;;;;;4.13;2.85;;;17.90;99.90;;;;;;4995030;28;20177;-84
2023/05/16 09:05:37;;;;;;;3.55;2.65;;;18.00;99.90;;;;;;4994574;28;20297;-84
2023/05/16 09:08:03;;;;;;;3.28;2.50;;;18.10;99.90;;;;;;4995991;28;20276;-82
2023/05/16 09:10:30;;;;;;;5.03;2.75;;;18.30;99.90;;;;;;5026292;28;20173;-83
2023/05/16 09:12:55;;;;;;;4.00;2.60;;;18.50;99.90;;;;;;5026559;28;20255;-83
2023/05/16 09:15:21;;;;;;;8.32;3.13;;;18.50;99.90;;;;;;5022934;28;20321;-83
2023/05/16 09:17:47;;;;;;;2.90;2.55;;;18.40;99.90;;;;;;5001404;28;20640;-83
2023/05/16 09:20:18;;;;;;;3.38;2.50;;;18.30;99.90;;;;;;5004774;28;20182;-84
2023/05/16 09:22:55;;;;;;;3.50;2.30;;;18.30;99.90;;;;;;5000579;28;20174;-83
2023/05/16 09:25:23;;;;;;;3.20;2.38;;;18.40;99.90;;;;;;5008936;28;20263;-82
2023/05/16 09:27:56;;;;;;;2.95;2.65;;;18.50;99.90;;;;;;5008152;28;20189;-83
2023/05/16 09:30:26;;;;;;;3.30;2.30;;;18.50;99.90;;;;;;4995935;28;20654;-82
2023/05/16 09:32:52;;;;;;;6.78;2.42;;;18.50;99.90;;;;;;5013061;28;20196;-83
2023/05/16 09:35:21;;;;;;;3.22;2.75;;;18.50;99.90;;;;;;5003587;28;20186;-82
2023/05/16 09:37:48;;;;;;;2.83;2.25;;;18.50;99.90;;;;;;5009915;28;20176;-82
2023/05/16 09:40:14;;;;;;;3.22;2.63;;;18.50;99.90;;;;;;5012055;28;20642;-82
2023/05/16 09:42:41;;;;;;;3.28;2.53;;;18.60;99.90;;;;;;4994761;28;20774;-83
2023/05/16 09:45:11;;;;;;;3.45;2.33;;;18.60;99.90;;;;;;5012532;28;20228;-82
2023/05/16 09:47:44;;;;;;;2.67;2.20;;;18.70;99.90;;;;;;5012879;28;20504;-82
2023/05/16 09:50:12;;;;;;;3.30;2.58;;;18.80;99.90;;;;;;5011459;28;20165;-82
2023/05/16 09:52:37;;;;;;;3.40;2.85;;;18.80;99.90;;;;;;5012392;28;20188;-82
2023/05/16 09:55:07;;;;;;;5.57;3.08;;;18.80;99.90;;;;;;5011223;28;20185;-83
2023/05/16 09:57:35;;;;;;;5.10;2.60;;;18.90;99.90;;;;;;5012596;28;20193;-82
2023/05/16 10:00:09;;;;;;;3.75;3.22;;;19.00;99.90;;;;;;5013555;28;20188;-82
2023/05/16 10:02:37;;;;;;;2.65;2.45;;;19.20;99.90;;;;;;5014087;28;20196;-85
2023/05/16 10:05:03;;;;;;;2.97;2.40;;;19.30;99.90;;;;;;5014437;28;20203;-82
2023/05/16 10:07:33;;;;;;;3.90;2.88;;;19.40;99.90;;;;;;5013463;28;20244;-85
2023/05/16 10:10:07;;;;;;;3.35;2.63;;;19.50;99.40;;;;;;5013755;28;20161;-84
2023/05/16 10:12:33;;;;;;;2.70;2.35;;;19.60;97.80;;;;;;5012825;28;20252;-82
2023/05/16 10:15:01;;;;;;;5.40;2.65;;;19.40;98.10;;;;;;5013787;28;20172;-84
2023/05/16 10:17:31;;;;;;;3.00;2.53;;;19.30;99.30;;;;;;5012132;28;20232;-81
2023/05/16 10:20:00;;;;;;;3.03;2.80;;;19.40;98.60;;;;;;5014056;28;20169;-82
2023/05/16 10:22:27;;;;;;;3.45;2.60;;;19.50;99.70;;;;;;5029000;28;20197;-82
2023/05/16 10:25:11;;;;;;;3.25;2.85;;;19.60;99.60;;;;;;5013923;28;20173;-83
2023/05/16 10:27:38;;;;;;;2.83;2.28;;;19.60;98.50;;;;;;5013386;28;20251;-82
2023/05/16 10:30:05;;;;;;;3.20;2.50;;;19.50;97.60;;;;;;5013873;28;20169;-83
2023/05/16 10:32:33;;;;;;;4.38;2.47;;;19.60;97.60;;;;;;5013467;28;20188;-83
2023/05/16 10:35:01;;;;;;;3.53;2.45;;;19.70;96.90;;;;;;5013713;28;20260;-83
2023/05/16 10:37:29;;;;;;;3.17;2.40;;;19.90;97.90;;;;;;5015777;28;20181;-82
2023/05/16 10:39:55;;;;;;;3.90;2.75;;;19.80;96.30;;;;;;5018801;28;20231;-83
2023/05/16 10:42:20;;;;;;;3.33;2.50;;;19.70;96.60;;;;;;5018872;28;20232;-82
2023/05/16 10:44:46;;;;;;;3.42;2.75;;;19.70;95.70;;;;;;5030361;28;20170;-83
2023/05/16 10:47:17;;;;;;;4.72;3.03;;;19.80;94.40;;;;;;5041284;28;20185;-83
2023/05/16 10:49:43;;;;;;;3.25;2.75;;;19.90;94.00;;;;;;5041530;28;20189;-83
2023/05/16 10:52:10;;;;;;;3.58;2.78;;;19.90;94.70;;;;;;5041731;28;20200;-82
2023/05/16 10:54:42;;;;;;;3.63;2.55;;;19.90;95.40;;;;;;5035619;28;20177;-81
2023/05/16 10:57:21;;;;;;;2.53;2.30;;;19.70;92.00;;;;;;5028881;28;20169;-83
2023/05/16 10:59:48;;;;;;;4.25;2.92;;;19.70;93.70;;;;;;5036435;28;20165;-83
2023/05/16 11:02:24;;;;;;;6.10;2.72;;;19.80;93.50;;;;;;5040236;28;20208;-82
2023/05/16 11:04:52;;;;;;;3.45;2.88;;;19.80;93.50;;;;;;5040594;28;20176;-83
2023/05/16 11:07:19;;;;;;;2.78;2.47;;;19.80;93.70;;;;;;5033897;28;20276;-83
2023/05/16 11:10:01;;;;;;;4.43;2.75;;;20.00;93.90;;;;;;5021702;28;20173;-83
2023/05/16 11:12:35;;;;;;;2.78;2.38;;;20.40;94.30;;;;;;5016034;28;20543;-83
2023/05/16 11:15:17;;;;;;;2.70;2.50;;;20.50;91.70;;;;;;5015663;28;20204;-83
2023/05/16 11:17:43;;;;;;;3.80;2.75;;;20.90;96.20;;;;;;5015623;28;20166;-83
2023/05/16 11:20:25;;;;;;;5.63;2.47;;;21.20;87.60;;;;;;5015635;28;20184;-83
2023/05/16 11:23:11;;;;;;;5.32;2.55;;;20.80;87.40;;;;;;5016937;28;20182;-83
2023/05/16 11:25:39;;;;;;;2.33;2.13;;;20.80;87.70;;;;;;5017387;28;20224;-83
2023/05/16 11:28:07;;;;;;;4.90;2.83;;;20.90;90.00;;;;;;5016414;28;20255;-83
2023/05/16 11:30:32;;;;;;;2.58;2.38;;;20.60;85.50;;;;;;5014725;28;20204;-83
2023/05/16 11:32:58;;;;;;;4.97;2.50;;;20.40;87.00;;;;;;5015006;28;20221;-83
2023/05/16 11:35:24;;;;;;;2.15;1.95;;;20.20;85.40;;;;;;5016164;28;20185;-83
2023/05/16 11:37:50;;;;;;;3.22;2.20;;;20.10;86.20;;;;;;5014914;28;20185;-83
2023/05/16 11:40:16;;;;;;;3.55;2.50;;;20.30;89.10;;;;;;5015013;28;20181;-83
2023/05/16 11:42:44;;;;;;;5.28;2.88;;;20.70;88.50;;;;;;5015685;28;20228;-83
2023/05/16 11:45:15;;;;;;;3.20;2.38;;;20.90;86.50;;;;;;5016222;28;20208;-83
2023/05/16 11:47:43;;;;;;;4.63;2.17;;;21.10;85.00;;;;;;5014425;28;20645;-82
2023/05/16 11:50:14;;;;;;;2.72;2.30;;;21.10;83.40;;;;;;5015826;28;20709;-84
2023/05/16 11:52:43;;;;;;;2.92;2.47;;;21.00;83.50;;;;;;5015720;28;21103;-82
2023/05/16 11:55:10;;;;;;;2.45;1.98;;;20.90;85.40;;;;;;5014765;28;20608;-82
2023/05/16 11:57:40;;;;;;;2.70;2.38;;;20.90;81.80;;;;;;5015729;28;20271;-82
2023/05/16 12:00:20;;;;;;;3.08;2.63;;;20.80;80.50;;;;;;5015772;28;20177;-83
2023/05/16 12:02:47;;;;;;;4.00;2.60;;;20.90;82.50;;;;;;5031076;28;20184;-82
2023/05/16 12:05:15;;;;;;;3.28;2.63;;;21.00;80.20;;;;;;5014336;28;20411;-83
2023/05/16 12:07:43;;;;;;;8.38;2.40;;;20.90;79.90;;;;;;5015130;28;20631;-83
2023/05/16 12:10:11;;;;;;;2.60;2.40;;;21.20;76.30;;;;;;5030795;28;20713;-83
2023/05/16 12:12:39;;;;;;;4.13;2.70;;;21.40;78.50;;;;;;5030022;28;20189;-82
2023/05/16 12:15:07;;;;;;;2.53;2.25;;;21.70;76.80;;;;;;5030883;28;20537;-83
2023/05/16 12:17:37;;;;;;;3.10;2.42;;;21.70;76.50;;;;;;5015060;28;20173;-83
2023/05/16 12:20:10;;;;;;;3.83;2.05;;;21.60;77.20;;;;;;5017388;28;20181;-83
2023/05/16 12:22:42;;;;;;;3.22;2.55;;;21.90;77.30;;;;;;5034156;28;20192;-82
2023/05/16 12:25:24;;;;;;;4.05;2.42;;;21.70;75.50;;;;;;5015940;28;20192;-83
2023/05/16 12:27:56;;;;;;;7.05;2.80;;;21.60;74.60;;;;;;5031806;28;20721;-83
2023/05/16 12:30:23;;;;;;;5.60;2.83;;;21.70;78.50;;;;;;5017230;28;20169;-82
2023/05/16 12:33:01;;;;;;;3.75;2.40;;;21.60;77.10;;;;;;5016667;28;20181;-84
2023/05/16 12:35:32;;;;;;;3.80;2.70;;;21.50;76.30;;;;;;5017414;28;20169;-85
2023/05/16 12:37:58;;;;;;;2.58;2.35;;;21.50;78.60;;;;;;5017018;28;20181;-84
2023/05/16 12:40:28;;;;;;;3.83;2.72;;;21.30;79.00;;;;;;5017435;28;20232;-84
2023/05/16 12:42:54;;;;;;;4.43;3.20;;;21.20;82.50;;;;;;5017864;28;20228;-82
2023/05/16 12:45:22;;;;;;;3.00;2.58;;;21.30;82.10;;;;;;5016122;28;20301;-83
2023/05/16 12:47:48;;;;;;;3.05;2.58;;;21.30;80.40;;;;;;5015261;28;20942;-82
2023/05/16 12:50:16;;;;;;;5.05;2.75;;;21.40;79.30;;;;;;5016531;28;20174;-84